sensor_id;sensor_type;location;lat;lon;timestamp;pressure;altitude;pressure_sealevel;temperature;humidity
47280;BME280;34064;44.942;0.008;2023-04-07T00:00:24;99239.91;;;11.73;45.96
47280;BME280;34064;44.942;0.008;2023-04-07T00:02:51;99243.75;;;11.69;45.85
47280;BME280;34064;44.942;0.008;2023-04-07T00:05:18;99237.81;;;11.65;46.04
47280;BME280;34064;44.942;0.008;2023-04-07T00:07:45;99247.94;;;11.60;46.33
47280;BME280;34064;44.942;0.008;2023-04-07T00:10:11;99245.34;;;11.47;47.53
47280;BME280;34064;44.942;0.008;2023-04-07T00:12:37;99237.25;;;11.49;46.79
47280;BME280;34064;44.942;0.008;2023-04-07T00:15:04;99236.63;;;11.45;46.89
47280;BME280;34064;44.942;0.008;2023-04-07T00:17:31;99242.16;;;11.42;46.41
47280;BME280;34064;44.942;0.008;2023-04-07T00:19:57;99234.63;;;11.36;46.44
47280;BME280;34064;44.942;0.008;2023-04-07T00:22:23;99233.28;;;11.30;46.69
47280;BME280;34064;44.942;0.008;2023-04-07T00:24:50;99244.38;;;11.24;47.15
47280;BME280;34064;44.942;0.008;2023-04-07T00:27:16;99241.28;;;11.17;47.09
47280;BME280;34064;44.942;0.008;2023-04-07T00:29:42;99243.41;;;11.12;46.92
47280;BME280;34064;44.942;0.008;2023-04-07T00:32:11;99242.03;;;11.06;46.67
47280;BME280;34064;44.942;0.008;2023-04-07T00:34:38;99253.13;;;11.00;47.01
47280;BME280;34064;44.942;0.008;2023-04-07T00:37:04;99248.34;;;10.92;47.77
47280;BME280;34064;44.942;0.008;2023-04-07T00:39:32;99244.00;;;10.91;47.45
47280;BME280;34064;44.942;0.008;2023-04-07T00:41:58;99241.56;;;10.88;47.06
47280;BME280;34064;44.942;0.008;2023-04-07T00:44:25;99250.41;;;10.76;47.79
47280;BME280;34064;44.942;0.008;2023-04-07T00:46:51;99243.50;;;10.73;47.46
47280;BME280;34064;44.942;0.008;2023-04-07T00:49:17;99241.16;;;10.69;47.69
47280;BME280;34064;44.942;0.008;2023-04-07T00:51:45;99246.81;;;10.64;47.68
47280;BME280;34064;44.942;0.008;2023-04-07T00:54:12;99249.66;;;10.61;47.41
47280;BME280;34064;44.942;0.008;2023-04-07T00:56:38;99253.38;;;10.58;47.55
47280;BME280;34064;44.942;0.008;2023-04-07T00:59:05;99251.88;;;10.54;47.68
47280;BME280;34064;44.942;0.008;2023-04-07T01:02:02;99247.75;;;10.50;47.58
47280;BME280;34064;44.942;0.008;2023-04-07T01:07:22;99253.72;;;10.41;47.83
47280;BME280;34064;44.942;0.008;2023-04-07T01:09:59;99249.53;;;10.37;47.92
47280;BME280;34064;44.942;0.008;2023-04-07T01:12:28;99249.00;;;10.32;47.88
47280;BME280;34064;44.942;0.008;2023-04-07T01:15:06;99246.97;;;10.22;48.59
47280;BME280;34064;44.942;0.008;2023-04-07T01:17:34;99250.56;;;10.21;48.30
47280;BME280;34064;44.942;0.008;2023-04-07T01:20:04;99247.91;;;10.21;47.75
47280;BME280;34064;44.942;0.008;2023-04-07T01:22:39;99248.03;;;10.20;47.74
47280;BME280;34064;44.942;0.008;2023-04-07T01:25:26;99247.91;;;10.21;47.84
47280;BME280;34064;44.942;0.008;2023-04-07T01:30:37;99240.91;;;10.20;48.31
47280;BME280;34064;44.942;0.008;2023-04-07T01:33:05;99236.56;;;10.19;48.63
47280;BME280;34064;44.942;0.008;2023-04-07T01:35:34;99234.41;;;10.11;49.18
47280;BME280;34064;44.942;0.008;2023-04-07T01:38:03;99225.81;;;10.08;48.67
47280;BME280;34064;44.942;0.008;2023-04-07T01:40:31;99226.75;;;10.07;48.08
47280;BME280;34064;44.942;0.008;2023-04-07T01:42:59;99223.56;;;10.02;48.15
47280;BME280;34064;44.942;0.008;2023-04-07T01:45:27;99224.00;;;9.95;48.40
47280;BME280;34064;44.942;0.008;2023-04-07T01:47:55;99235.00;;;9.89;48.56
47280;BME280;34064;44.942;0.008;2023-04-07T01:50:22;99231.59;;;9.87;48.43
47280;BME280;34064;44.942;0.008;2023-04-07T01:52:50;99231.06;;;9.82;48.54
47280;BME280;34064;44.942;0.008;2023-04-07T01:55:18;99225.66;;;9.83;49.16
47280;BME280;34064;44.942;0.008;2023-04-07T01:57:46;99229.50;;;9.92;48.87
47280;BME280;34064;44.942;0.008;2023-04-07T02:00:14;99213.16;;;9.98;48.83
47280;BME280;34064;44.942;0.008;2023-04-07T02:02:43;99213.47;;;10.07;48.88
47280;BME280;34064;44.942;0.008;2023-04-07T02:05:14;99204.16;;;10.14;49.42
47280;BME280;34064;44.942;0.008;2023-04-07T02:07:50;99198.22;;;10.23;48.72
47280;BME280;34064;44.942;0.008;2023-04-07T02:10:20;99201.09;;;10.20;50.70
47280;BME280;34064;44.942;0.008;2023-04-07T02:12:48;99202.16;;;10.30;49.78
47280;BME280;34064;44.942;0.008;2023-04-07T02:15:16;99193.00;;;10.35;49.27
47280;BME280;34064;44.942;0.008;2023-04-07T02:17:46;99178.59;;;10.39;49.62
47280;BME280;34064;44.942;0.008;2023-04-07T02:20:15;99186.13;;;10.45;49.36
47280;BME280;34064;44.942;0.008;2023-04-07T02:22:42;99180.94;;;10.43;50.77
47280;BME280;34064;44.942;0.008;2023-04-07T02:25:30;99178.69;;;10.50;51.33
47280;BME280;34064;44.942;0.008;2023-04-07T02:27:57;99173.91;;;10.55;50.81
47280;BME280;34064;44.942;0.008;2023-04-07T02:30:25;99173.47;;;10.61;50.63
47280;BME280;34064;44.942;0.008;2023-04-07T02:32:52;99160.72;;;10.67;51.27
47280;BME280;34064;44.942;0.008;2023-04-07T02:35:19;99146.25;;;10.71;50.74
47280;BME280;34064;44.942;0.008;2023-04-07T02:37:46;99147.22;;;10.70;51.47
47280;BME280;34064;44.942;0.008;2023-04-07T02:40:13;99137.34;;;10.72;50.79
47280;BME280;34064;44.942;0.008;2023-04-07T02:42:39;99139.00;;;10.73;50.58
47280;BME280;34064;44.942;0.008;2023-04-07T02:45:08;99141.78;;;10.71;51.36
47280;BME280;34064;44.942;0.008;2023-04-07T02:47:37;99142.84;;;10.69;51.59
47280;BME280;34064;44.942;0.008;2023-04-07T02:50:04;99136.16;;;10.63;51.27
47280;BME280;34064;44.942;0.008;2023-04-07T02:52:31;99137.13;;;10.62;51.17
47280;BME280;34064;44.942;0.008;2023-04-07T02:54:57;99142.03;;;10.55;51.01
47280;BME280;34064;44.942;0.008;2023-04-07T02:57:23;99144.78;;;10.54;50.71
47280;BME280;34064;44.942;0.008;2023-04-07T02:59:50;99144.25;;;10.49;50.45
47280;BME280;34064;44.942;0.008;2023-04-07T03:02:16;99142.91;;;10.43;50.68
47280;BME280;34064;44.942;0.008;2023-04-07T03:04:43;99145.03;;;10.38;50.68
47280;BME280;34064;44.942;0.008;2023-04-07T03:07:09;99142.47;;;10.36;50.83
47280;BME280;34064;44.942;0.008;2023-04-07T03:09:35;99145.94;;;10.37;50.76
47280;BME280;34064;44.942;0.008;2023-04-07T03:12:02;99146.91;;;10.36;50.80
47280;BME280;34064;44.942;0.008;2023-04-07T03:14:28;99138.94;;;10.36;50.49
47280;BME280;34064;44.942;0.008;2023-04-07T03:16:55;99146.06;;;10.35;50.78
47280;BME280;34064;44.942;0.008;2023-04-07T03:19:21;99146.19;;;10.34;51.41
47280;BME280;34064;44.942;0.008;2023-04-07T03:21:49;99144.25;;;10.36;51.52
47280;BME280;34064;44.942;0.008;2023-04-07T03:24:15;99146.72;;;10.39;51.08
47280;BME280;34064;44.942;0.008;2023-04-07T03:26:42;99155.66;;;10.38;51.14
47280;BME280;34064;44.942;0.008;2023-04-07T03:29:08;99146.72;;;10.39;51.29
47280;BME280;34064;44.942;0.008;2023-04-07T03:31:34;99142.03;;;10.42;51.94
47280;BME280;34064;44.942;0.008;2023-04-07T03:34:03;99141.59;;;10.49;51.59
47280;BME280;34064;44.942;0.008;2023-04-07T03:36:30;99142.25;;;10.52;51.79
47280;BME280;34064;44.942;0.008;2023-04-07T03:38:59;99137.25;;;10.60;50.98
47280;BME280;34064;44.942;0.008;2023-04-07T03:41:25;99136.78;;;10.67;51.77
47280;BME280;34064;44.942;0.008;2023-04-07T03:43:52;99130.19;;;10.72;51.80
47280;BME280;34064;44.942;0.008;2023-04-07T03:46:21;99113.91;;;10.77;52.18
47280;BME280;34064;44.942;0.008;2023-04-07T03:48:48;99121.44;;;10.83;52.59
47280;BME280;34064;44.942;0.008;2023-04-07T03:51:14;99120.25;;;10.87;53.30
47280;BME280;34064;44.942;0.008;2023-04-07T03:53:41;99118.09;;;10.92;52.54
47280;BME280;34064;44.942;0.008;2023-04-07T03:56:08;99119.81;;;10.93;53.05
47280;BME280;34064;44.942;0.008;2023-04-07T03:58:35;99114.50;;;10.93;53.29
47280;BME280;34064;44.942;0.008;2023-04-07T04:01:02;99116.31;;;10.93;53.57
47280;BME280;34064;44.942;0.008;2023-04-07T04:03:29;99117.69;;;10.99;53.03
47280;BME280;34064;44.942;0.008;2023-04-07T04:05:56;99116.59;;;11.01;53.22
47280;BME280;34064;44.942;0.008;2023-04-07T04:08:23;99104.66;;;11.07;53.38
47280;BME280;34064;44.942;0.008;2023-04-07T04:10:50;99102.50;;;11.12;52.83
47280;BME280;34064;44.942;0.008;2023-04-07T04:13:17;99097.72;;;11.17;52.93
47280;BME280;34064;44.942;0.008;2023-04-07T04:15:43;99097.47;;;11.20;53.37
47280;BME280;34064;44.942;0.008;2023-04-07T04:18:09;99099.91;;;11.23;53.58
47280;BME280;34064;44.942;0.008;2023-04-07T04:20:36;99103.28;;;11.26;54.33
47280;BME280;34064;44.942;0.008;2023-04-07T04:23:02;99097.75;;;11.29;54.23
47280;BME280;34064;44.942;0.008;2023-04-07T04:25:29;99092.31;;;11.30;54.16
47280;BME280;34064;44.942;0.008;2023-04-07T04:27:55;99101.75;;;11.34;54.24
47280;BME280;34064;44.942;0.008;2023-04-07T04:30:22;99088.34;;;11.36;54.47
47280;BME280;34064;44.942;0.008;2023-04-07T04:32:48;99092.59;;;11.38;54.88
47280;BME280;34064;44.942;0.008;2023-04-07T04:35:15;99086.44;;;11.38;55.51
47280;BME280;34064;44.942;0.008;2023-04-07T04:37:41;99077.38;;;11.41;54.65
47280;BME280;34064;44.942;0.008;2023-04-07T04:40:08;99081.59;;;11.43;54.80
47280;BME280;34064;44.942;0.008;2023-04-07T04:42:35;99082.34;;;11.45;55.67
47280;BME280;34064;44.942;0.008;2023-04-07T04:45:01;99082.19;;;11.47;55.72
47280;BME280;34064;44.942;0.008;2023-04-07T04:47:28;99078.22;;;11.52;56.01
47280;BME280;34064;44.942;0.008;2023-04-07T04:49:54;99076.31;;;11.54;55.37
47280;BME280;34064;44.942;0.008;2023-04-07T04:52:21;99077.16;;;11.55;56.04
47280;BME280;34064;44.942;0.008;2023-04-07T04:54:47;99077.75;;;11.59;55.31
47280;BME280;34064;44.942;0.008;2023-04-07T04:57:13;99083.94;;;11.59;55.50
47280;BME280;34064;44.942;0.008;2023-04-07T04:59:41;99071.59;;;11.58;55.91
47280;BME280;34064;44.942;0.008;2023-04-07T05:02:07;99071.38;;;11.61;55.74
47280;BME280;34064;44.942;0.008;2023-04-07T05:04:34;99059.38;;;11.67;54.86
47280;BME280;34064;44.942;0.008;2023-04-07T05:07:01;99062.78;;;11.69;55.48
47280;BME280;34064;44.942;0.008;2023-04-07T05:09:27;99067.00;;;11.71;55.82
47280;BME280;34064;44.942;0.008;2023-04-07T05:11:54;99070.41;;;11.74;55.81
47280;BME280;34064;44.942;0.008;2023-04-07T05:14:20;99063.03;;;11.77;55.57
47280;BME280;34064;44.942;0.008;2023-04-07T05:16:47;99067.38;;;11.78;56.50
47280;BME280;34064;44.942;0.008;2023-04-07T05:19:13;99061.84;;;11.81;55.28
47280;BME280;34064;44.942;0.008;2023-04-07T05:21:40;99075.88;;;11.83;55.50
47280;BME280;34064;44.942;0.008;2023-04-07T05:24:06;99076.50;;;11.87;55.68
47280;BME280;34064;44.942;0.008;2023-04-07T05:26:33;99083.59;;;11.86;56.23
47280;BME280;34064;44.942;0.008;2023-04-07T05:28:59;99075.41;;;11.90;55.83
47280;BME280;34064;44.942;0.008;2023-04-07T05:31:26;99069.84;;;11.93;55.86
47280;BME280;34064;44.942;0.008;2023-04-07T05:33:52;99071.53;;;11.94;56.35
47280;BME280;34064;44.942;0.008;2023-04-07T05:36:20;99076.88;;;11.94;56.43
47280;BME280;34064;44.942;0.008;2023-04-07T05:38:46;99080.22;;;11.96;56.56
47280;BME280;34064;44.942;0.008;2023-04-07T05:41:13;99075.69;;;11.98;56.11
47280;BME280;34064;44.942;0.008;2023-04-07T05:43:40;99076.41;;;12.00;56.30
47280;BME280;34064;44.942;0.008;2023-04-07T05:46:07;99078.84;;;12.03;56.68
47280;BME280;34064;44.942;0.008;2023-04-07T05:48:37;99070.59;;;12.06;56.73
47280;BME280;34064;44.942;0.008;2023-04-07T05:51:04;99071.09;;;12.11;56.33
47280;BME280;34064;44.942;0.008;2023-04-07T05:53:31;99073.75;;;12.11;56.97
47280;BME280;34064;44.942;0.008;2023-04-07T05:55:58;99071.81;;;12.13;57.00
47280;BME280;34064;44.942;0.008;2023-04-07T05:58:26;99067.09;;;12.17;56.55
47280;BME280;34064;44.942;0.008;2023-04-07T06:00:54;99073.25;;;12.17;56.64
47280;BME280;34064;44.942;0.008;2023-04-07T06:03:21;99067.94;;;12.17;56.90
47280;BME280;34064;44.942;0.008;2023-04-07T06:05:51;99066.00;;;12.20;57.24
47280;BME280;34064;44.942;0.008;2023-04-07T06:08:21;99065.63;;;12.24;57.03
47280;BME280;34064;44.942;0.008;2023-04-07T06:10:48;99063.44;;;12.29;56.95
47280;BME280;34064;44.942;0.008;2023-04-07T06:13:16;99056.69;;;12.37;56.44
47280;BME280;34064;44.942;0.008;2023-04-07T06:15:43;99056.41;;;12.40;56.56
47280;BME280;34064;44.942;0.008;2023-04-07T06:18:11;99053.66;;;12.41;56.46
47280;BME280;34064;44.942;0.008;2023-04-07T06:20:37;99051.09;;;12.40;56.72
47280;BME280;34064;44.942;0.008;2023-04-07T06:23:05;99053.66;;;12.41;56.84
47280;BME280;34064;44.942;0.008;2023-04-07T06:25:32;99057.75;;;12.45;56.64
47280;BME280;34064;44.942;0.008;2023-04-07T06:27:59;99055.66;;;12.49;57.05
47280;BME280;34064;44.942;0.008;2023-04-07T06:30:29;99056.03;;;12.56;56.57
47280;BME280;34064;44.942;0.008;2023-04-07T06:33:01;99053.84;;;12.61;56.72
47280;BME280;34064;44.942;0.008;2023-04-07T06:35:30;99063.66;;;12.60;57.35
47280;BME280;34064;44.942;0.008;2023-04-07T06:37:57;99057.22;;;12.63;57.11
47280;BME280;34064;44.942;0.008;2023-04-07T06:40:23;99055.03;;;12.68;57.09
47280;BME280;34064;44.942;0.008;2023-04-07T06:42:49;99056.47;;;12.72;57.17
47280;BME280;34064;44.942;0.008;2023-04-07T06:45:16;99044.22;;;12.81;57.32
47280;BME280;34064;44.942;0.008;2023-04-07T06:47:43;99039.25;;;12.88;57.38
47280;BME280;34064;44.942;0.008;2023-04-07T06:50:09;99046.00;;;12.92;57.75
47280;BME280;34064;44.942;0.008;2023-04-07T06:52:36;99040.41;;;12.95;57.33
47280;BME280;34064;44.942;0.008;2023-04-07T06:55:03;99037.13;;;13.03;56.95
47280;BME280;34064;44.942;0.008;2023-04-07T06:57:29;99033.22;;;13.07;57.31
47280;BME280;34064;44.942;0.008;2023-04-07T06:59:55;99034.66;;;13.11;57.55
47280;BME280;34064;44.942;0.008;2023-04-07T07:02:22;99038.63;;;13.17;57.39
47280;BME280;34064;44.942;0.008;2023-04-07T07:04:49;99038.38;;;13.20;57.53
47280;BME280;34064;44.942;0.008;2023-04-07T07:07:15;99042.34;;;13.25;57.77
47280;BME280;34064;44.942;0.008;2023-04-07T07:09:42;99032.25;;;13.29;57.75
47280;BME280;34064;44.942;0.008;2023-04-07T07:12:08;99029.19;;;13.34;57.69
47280;BME280;34064;44.942;0.008;2023-04-07T07:14:34;99038.53;;;13.39;57.88
47280;BME280;34064;44.942;0.008;2023-04-07T07:17:01;99025.38;;;13.48;58.77
47280;BME280;34064;44.942;0.008;2023-04-07T07:19:27;99029.88;;;13.47;58.77
47280;BME280;34064;44.942;0.008;2023-04-07T07:21:53;99026.97;;;13.50;59.10
47280;BME280;34064;44.942;0.008;2023-04-07T07:24:20;99017.56;;;13.56;59.34
47280;BME280;34064;44.942;0.008;2023-04-07T07:26:47;99025.56;;;13.56;59.05
47280;BME280;34064;44.942;0.008;2023-04-07T07:29:13;99019.84;;;13.61;58.92
47280;BME280;34064;44.942;0.008;2023-04-07T07:31:39;99010.94;;;13.71;59.09
47280;BME280;34064;44.942;0.008;2023-04-07T07:34:06;99014.03;;;13.77;59.45
47280;BME280;34064;44.942;0.008;2023-04-07T07:36:32;99012.25;;;13.87;59.11
47280;BME280;34064;44.942;0.008;2023-04-07T07:38:58;99009.06;;;13.93;59.15
47280;BME280;34064;44.942;0.008;2023-04-07T07:41:25;99010.22;;;14.00;59.01
47280;BME280;34064;44.942;0.008;2023-04-07T07:43:52;99004.59;;;14.03;58.86
47280;BME280;34064;44.942;0.008;2023-04-07T07:46:18;99004.19;;;14.08;58.94
47280;BME280;34064;44.942;0.008;2023-04-07T07:48:48;99000.13;;;14.14;58.76
47280;BME280;34064;44.942;0.008;2023-04-07T07:51:16;99001.56;;;14.18;59.01
47280;BME280;34064;44.942;0.008;2023-04-07T07:53:46;98990.31;;;14.24;58.71
47280;BME280;34064;44.942;0.008;2023-04-07T07:56:14;98998.91;;;14.28;58.61
47280;BME280;34064;44.942;0.008;2023-04-07T07:58:41;98992.06;;;14.35;58.46
47280;BME280;34064;44.942;0.008;2023-04-07T08:01:08;98997.97;;;14.39;58.24
47280;BME280;34064;44.942;0.008;2023-04-07T08:03:36;98994.56;;;14.37;58.38
47280;BME280;34064;44.942;0.008;2023-04-07T08:06:13;98993.44;;;14.39;58.26
47280;BME280;34064;44.942;0.008;2023-04-07T08:08:43;99002.44;;;14.38;58.20
47280;BME280;34064;44.942;0.008;2023-04-07T08:11:10;99001.88;;;14.34;58.23
47280;BME280;34064;44.942;0.008;2023-04-07T08:13:37;98996.53;;;14.34;58.41
47280;BME280;34064;44.942;0.008;2023-04-07T08:16:14;98999.75;;;14.28;58.53
47280;BME280;34064;44.942;0.008;2023-04-07T08:18:44;99004.41;;;14.36;58.52
47280;BME280;34064;44.942;0.008;2023-04-07T08:21:12;99006.66;;;14.31;58.90
47280;BME280;34064;44.942;0.008;2023-04-07T08:23:40;99013.84;;;14.30;58.62
47280;BME280;34064;44.942;0.008;2023-04-07T08:26:07;99011.16;;;14.30;58.63
47280;BME280;34064;44.942;0.008;2023-04-07T08:28:34;99005.25;;;14.37;58.46
47280;BME280;34064;44.942;0.008;2023-04-07T08:31:02;99010.03;;;14.43;58.44
47280;BME280;34064;44.942;0.008;2023-04-07T08:33:29;99011.19;;;14.50;58.39
47280;BME280;34064;44.942;0.008;2023-04-07T08:35:55;99012.47;;;14.56;58.36
47280;BME280;34064;44.942;0.008;2023-04-07T08:38:21;99010.94;;;14.63;58.64
47280;BME280;34064;44.942;0.008;2023-04-07T08:40:52;99003.94;;;14.72;58.40
47280;BME280;34064;44.942;0.008;2023-04-07T08:43:21;99005.06;;;14.79;58.35
47280;BME280;34064;44.942;0.008;2023-04-07T08:45:49;99002.13;;;14.82;58.11
47280;BME280;34064;44.942;0.008;2023-04-07T08:48:18;99001.13;;;14.83;57.76
47280;BME280;34064;44.942;0.008;2023-04-07T08:50:48;99002.56;;;14.87;57.80
47280;BME280;34064;44.942;0.008;2023-04-07T08:53:28;98996.78;;;14.82;57.67
47280;BME280;34064;44.942;0.008;2023-04-07T08:55:57;99000.84;;;14.76;57.90
47280;BME280;34064;44.942;0.008;2023-04-07T08:58:25;99006.06;;;14.78;57.90
47280;BME280;34064;44.942;0.008;2023-04-07T09:00:52;99005.66;;;14.82;57.86
47280;BME280;34064;44.942;0.008;2023-04-07T09:03:19;99000.56;;;14.89;57.58
47280;BME280;34064;44.942;0.008;2023-04-07T09:05:47;98995.09;;;14.91;57.53
47280;BME280;34064;44.942;0.008;2023-04-07T09:08:14;98993.25;;;14.91;57.53
47280;BME280;34064;44.942;0.008;2023-04-07T09:10:41;98998.88;;;14.98;57.67
47280;BME280;34064;44.942;0.008;2023-04-07T09:13:07;98995.22;;;14.99;57.29
47280;BME280;34064;44.942;0.008;2023-04-07T09:15:34;98991.28;;;15.03;57.32
47280;BME280;34064;44.942;0.008;2023-04-07T09:18:00;98988.16;;;15.08;57.40
47280;BME280;34064;44.942;0.008;2023-04-07T09:20:29;98987.91;;;15.21;57.15
47280;BME280;34064;44.942;0.008;2023-04-07T09:23:33;98968.72;;;15.35;57.07
47280;BME280;34064;44.942;0.008;2023-04-07T09:31:20;98957.47;;;15.69;56.59
47280;BME280;34064;44.942;0.008;2023-04-07T09:33:51;98949.81;;;15.84;56.11
47280;BME280;34064;44.942;0.008;2023-04-07T09:36:18;98948.09;;;15.93;56.13
47280;BME280;34064;44.942;0.008;2023-04-07T09:38:45;98945.06;;;16.06;56.02
47280;BME280;34064;44.942;0.008;2023-04-07T09:41:13;98938.91;;;16.24;55.76
47280;BME280;34064;44.942;0.008;2023-04-07T09:43:43;98929.00;;;16.52;55.29
47280;BME280;34064;44.942;0.008;2023-04-07T09:46:16;98918.41;;;16.68;55.24
47280;BME280;34064;44.942;0.008;2023-04-07T09:48:44;98922.69;;;16.79;54.96
47280;BME280;34064;44.942;0.008;2023-04-07T09:51:15;98916.84;;;16.84;54.65
47280;BME280;34064;44.942;0.008;2023-04-07T09:53:53;98920.22;;;16.86;54.21
47280;BME280;34064;44.942;0.008;2023-04-07T09:56:23;98904.66;;;16.90;54.44
47280;BME280;34064;44.942;0.008;2023-04-07T09:58:50;98904.44;;;17.01;54.23
47280;BME280;34064;44.942;0.008;2023-04-07T10:01:19;98903.56;;;17.19;53.75
47280;BME280;34064;44.942;0.008;2023-04-07T10:03:49;98903.94;;;17.24;53.73
47280;BME280;34064;44.942;0.008;2023-04-07T10:06:19;98895.88;;;17.24;53.72
47280;BME280;34064;44.942;0.008;2023-04-07T10:08:46;98898.56;;;17.24;53.10
47280;BME280;34064;44.942;0.008;2023-04-07T10:11:15;98897.97;;;17.12;53.05
47280;BME280;34064;44.942;0.008;2023-04-07T10:13:43;98901.59;;;17.03;53.12
47280;BME280;34064;44.942;0.008;2023-04-07T10:16:10;98893.63;;;16.93;53.21
47280;BME280;34064;44.942;0.008;2023-04-07T10:18:38;98891.41;;;16.88;53.57
47280;BME280;34064;44.942;0.008;2023-04-07T10:21:07;98891.41;;;16.88;53.58
47280;BME280;34064;44.942;0.008;2023-04-07T10:24:04;98893.63;;;16.93;53.69
47280;BME280;34064;44.942;0.008;2023-04-07T10:26:36;98888.66;;;16.98;53.53
47280;BME280;34064;44.942;0.008;2023-04-07T10:29:11;98885.50;;;17.03;53.70
47280;BME280;34064;44.942;0.008;2023-04-07T10:31:44;98890.03;;;17.02;53.30
47280;BME280;34064;44.942;0.008;2023-04-07T10:34:15;98879.34;;;17.10;53.14
47280;BME280;34064;44.942;0.008;2023-04-07T10:37:12;98880.41;;;17.18;53.20
47280;BME280;34064;44.942;0.008;2023-04-07T10:39:49;98860.47;;;17.55;52.79
47280;BME280;34064;44.942;0.008;2023-04-07T10:45:06;98851.13;;;17.75;52.09
47280;BME280;34064;44.942;0.008;2023-04-07T10:50:31;98842.59;;;17.80;51.18
47280;BME280;34064;44.942;0.008;2023-04-07T10:53:12;98854.59;;;17.59;51.39
47280;BME280;34064;44.942;0.008;2023-04-07T10:55:44;98839.38;;;17.68;50.98
47280;BME280;34064;44.942;0.008;2023-04-07T10:58:20;98840.19;;;17.69;51.08
47280;BME280;34064;44.942;0.008;2023-04-07T11:03:41;98820.00;;;17.99;49.71
47280;BME280;34064;44.942;0.008;2023-04-07T11:06:13;98808.59;;;18.22;49.71
47280;BME280;34064;44.942;0.008;2023-04-07T11:08:43;98797.38;;;18.51;49.70
47280;BME280;34064;44.942;0.008;2023-04-07T11:11:13;98788.06;;;18.79;49.40
47280;BME280;34064;44.942;0.008;2023-04-07T11:13:42;98767.19;;;18.97;48.94
47280;BME280;34064;44.942;0.008;2023-04-07T11:16:10;98763.41;;;19.23;48.49
47280;BME280;34064;44.942;0.008;2023-04-07T11:18:38;98756.97;;;19.41;47.98
47280;BME280;34064;44.942;0.008;2023-04-07T11:21:07;98760.72;;;19.23;46.66
47280;BME280;34064;44.942;0.008;2023-04-07T11:23:43;98761.09;;;19.20;46.68
47280;BME280;34064;44.942;0.008;2023-04-07T11:26:12;98762.09;;;19.19;46.95
47280;BME280;34064;44.942;0.008;2023-04-07T11:28:47;98760.75;;;19.15;47.06
47280;BME280;34064;44.942;0.008;2023-04-07T11:31:25;98744.31;;;19.41;46.35
47280;BME280;34064;44.942;0.008;2023-04-07T11:34:01;98731.41;;;19.60;45.06
47280;BME280;34064;44.942;0.008;2023-04-07T11:36:37;98735.00;;;19.52;45.40
47280;BME280;34064;44.942;0.008;2023-04-07T11:39:16;98737.34;;;19.55;45.61
47280;BME280;34064;44.942;0.008;2023-04-07T11:41:48;98733.47;;;19.81;45.01
47280;BME280;34064;44.942;0.008;2023-04-07T11:44:15;98718.53;;;20.02;44.38
47280;BME280;34064;44.942;0.008;2023-04-07T11:46:58;98732.41;;;19.90;44.28
47280;BME280;34064;44.942;0.008;2023-04-07T11:49:26;98734.56;;;19.95;44.43
47280;BME280;34064;44.942;0.008;2023-04-07T11:52:04;98737.56;;;19.77;44.52
47280;BME280;34064;44.942;0.008;2023-04-07T11:54:43;98736.13;;;19.89;44.43
47280;BME280;34064;44.942;0.008;2023-04-07T11:57:12;98708.94;;;20.22;43.55
47280;BME280;34064;44.942;0.008;2023-04-07T11:59:41;98699.69;;;20.55;43.22
47280;BME280;34064;44.942;0.008;2023-04-07T12:02:08;98680.63;;;20.86;42.98
47280;BME280;34064;44.942;0.008;2023-04-07T12:04:34;98661.38;;;21.26;41.93
47280;BME280;34064;44.942;0.008;2023-04-07T12:07:10;98659.28;;;21.58;41.58
47280;BME280;34064;44.942;0.008;2023-04-07T12:09:36;98658.25;;;21.44;40.66
47280;BME280;34064;44.942;0.008;2023-04-07T12:12:04;98657.13;;;21.54;41.12
47280;BME280;34064;44.942;0.008;2023-04-07T12:14:32;98639.56;;;21.86;41.09
47280;BME280;34064;44.942;0.008;2023-04-07T12:16:59;98628.22;;;22.26;40.46
47280;BME280;34064;44.942;0.008;2023-04-07T12:19:29;98624.53;;;22.34;39.28
47280;BME280;34064;44.942;0.008;2023-04-07T12:21:57;98624.53;;;22.34;39.66
47280;BME280;34064;44.942;0.008;2023-04-07T12:24:24;98622.22;;;22.59;39.14
47280;BME280;34064;44.942;0.008;2023-04-07T12:26:50;98608.38;;;22.82;38.17
47280;BME280;34064;44.942;0.008;2023-04-07T12:29:17;98594.69;;;22.97;37.73
47280;BME280;34064;44.942;0.008;2023-04-07T12:31:45;98604.88;;;22.95;36.56
47280;BME280;34064;44.942;0.008;2023-04-07T12:34:11;98617.31;;;22.76;36.86
47280;BME280;34064;44.942;0.008;2023-04-07T12:36:38;98601.50;;;22.80;36.10
47280;BME280;34064;44.942;0.008;2023-04-07T12:39:06;98608.56;;;22.74;36.34
47280;BME280;34064;44.942;0.008;2023-04-07T12:41:36;98628.81;;;22.50;37.01
47280;BME280;34064;44.942;0.008;2023-04-07T12:44:04;98633.00;;;22.24;37.30
47280;BME280;34064;44.942;0.008;2023-04-07T12:46:31;98649.41;;;21.94;37.19
47280;BME280;34064;44.942;0.008;2023-04-07T12:48:58;98661.06;;;21.73;37.61
47280;BME280;34064;44.942;0.008;2023-04-07T12:51:30;98656.00;;;21.85;37.07
47280;BME280;34064;44.942;0.008;2023-04-07T12:53:58;98640.66;;;22.20;36.93
47280;BME280;34064;44.942;0.008;2023-04-07T12:56:29;98618.88;;;22.57;36.56
47280;BME280;34064;44.942;0.008;2023-04-07T12:58:56;98604.84;;;22.88;36.55
47280;BME280;34064;44.942;0.008;2023-04-07T13:01:24;98587.91;;;23.21;35.41
47280;BME280;34064;44.942;0.008;2023-04-07T13:04:01;98570.03;;;23.54;33.84
47280;BME280;34064;44.942;0.008;2023-04-07T13:06:28;98566.06;;;23.63;34.20
47280;BME280;34064;44.942;0.008;2023-04-07T13:08:55;98575.44;;;23.81;32.86
47280;BME280;34064;44.942;0.008;2023-04-07T13:11:22;98565.47;;;23.75;33.24
47280;BME280;34064;44.942;0.008;2023-04-07T13:13:49;98569.19;;;23.87;32.78
47280;BME280;34064;44.942;0.008;2023-04-07T13:16:16;98548.75;;;24.05;32.75
47280;BME280;34064;44.942;0.008;2023-04-07T13:18:43;98549.38;;;24.13;31.96
47280;BME280;34064;44.942;0.008;2023-04-07T13:21:10;98553.97;;;24.13;32.11
47280;BME280;34064;44.942;0.008;2023-04-07T13:23:41;98562.09;;;23.86;32.20
47280;BME280;34064;44.942;0.008;2023-04-07T13:26:10;98561.03;;;23.94;31.51